Time;durP1;ratioP1;P1;durP2;ratioP2;P2;SDS_P1;SDS_P2;PMS_P1;PMS_P2;Temp;Humidity;BMP_temperature;BMP_pressure;BME280_temperature;BME280_humidity;BME280_pressure;Samples;Min_cycle;Max_cycle;Signal;HPM_P1;HPM_P2
2024/03/13 00:00:12;;;;;;;13.25;5.93;;;;;;;13.06;65.40;99102.09;5093813;28;20024;-49
2024/03/13 00:02:38;;;;;;;8.95;5.90;;;;;;;13.22;65.46;99108.75;5093725;28;20027;-49
2024/03/13 00:05:10;;;;;;;10.65;6.18;;;;;;;13.30;65.06;99102.47;5093681;28;20048;-49
2024/03/13 00:07:38;;;;;;;9.25;5.95;;;;;;;13.30;65.13;99100.66;5093624;28;20513;-49
2024/03/13 00:10:11;;;;;;;9.98;6.18;;;;;;;13.30;64.85;99098.03;5093488;28;20020;-49
2024/03/13 00:12:37;;;;;;;13.30;9.88;;;;;;;13.22;64.79;99100.84;5092488;28;20081;-49
2024/03/13 00:15:06;;;;;;;8.88;6.30;;;;;;;13.16;65.28;99097.22;5092436;28;20110;-49
2024/03/13 00:17:47;;;;;;;23.48;21.30;;;;;;;13.15;64.87;99089.50;5092186;28;20046;-49
2024/03/13 00:20:16;;;;;;;17.92;12.73;;;;;;;13.13;64.97;99084.44;5092061;28;20035;-50
2024/03/13 00:22:44;;;;;;;8.45;6.40;;;;;;;13.20;65.09;99094.97;5092395;28;20414;-49
2024/03/13 00:25:14;;;;;;;13.05;6.72;;;;;;;13.35;65.17;99079.75;5093271;28;20028;-49
2024/03/13 00:27:41;;;;;;;9.25;5.93;;;;;;;13.38;64.43;99075.88;5091901;28;20035;-49
2024/03/13 00:30:08;;;;;;;7.53;5.50;;;;;;;13.35;64.48;99085.00;5093131;28;20107;-49
2024/03/13 00:32:34;;;;;;;7.78;5.57;;;;;;;13.31;64.53;99083.00;5093124;28;20110;-49
2024/03/13 00:35:35;;;;;;;6.63;4.95;;;;;;;13.26;64.23;99088.88;5093123;28;20035;-49
2024/03/13 00:38:01;;;;;;;6.53;5.07;;;;;;;13.08;64.48;99086.91;5013379;28;20471;-48
2024/03/13 00:40:29;;;;;;;14.57;6.22;;;;;;;13.05;64.98;99087.28;5013539;28;20041;-49
2024/03/13 00:43:09;;;;;;;8.73;5.40;;;;;;;13.22;65.42;99094.75;5030641;28;20041;-49
2024/03/13 00:45:37;;;;;;;7.10;4.60;;;;;;;13.40;65.24;99089.69;5013887;28;20048;-49
2024/03/13 00:48:04;;;;;;;8.30;6.55;;;;;;;13.48;64.54;99085.97;5030380;28;20048;-49
2024/03/13 00:50:30;;;;;;;9.63;6.10;;;;;;;13.47;64.39;99090.44;5030398;28;20036;-49
2024/03/13 00:52:56;;;;;;;11.00;8.80;;;;;;;13.47;64.42;99095.72;5030387;28;20411;-49
2024/03/13 00:55:23;;;;;;;7.93;5.38;;;;;;;13.46;64.14;99088.84;5013700;28;20029;-49
2024/03/13 00:57:57;;;;;;;10.50;7.70;;;;;;;13.45;64.09;99081.13;5030320;28;20029;-49
2024/03/13 01:00:28;;;;;;;8.05;5.13;;;;;;;13.43;64.20;99083.16;5013804;28;20029;-49
2024/03/13 01:02:54;;;;;;;10.02;6.18;;;;;;;13.45;64.27;99092.47;5030325;28;20042;-49
2024/03/13 01:05:21;;;;;;;8.38;7.15;;;;;;;13.48;63.93;99094.72;5030177;28;20060;-49
2024/03/13 01:07:50;;;;;;;8.07;5.72;;;;;;;13.47;64.56;99090.44;5072309;28;20128;-49
2024/03/13 01:10:16;;;;;;;9.85;5.40;;;;;;;13.53;63.85;99083.53;5091245;28;20050;-49
2024/03/13 01:12:42;;;;;;;11.05;6.07;;;;;;;13.35;63.99;99082.38;5091282;28;20111;-49
2024/03/13 01:15:08;;;;;;;7.55;5.38;;;;;;;13.23;64.34;99078.75;5092288;28;20061;-49
2024/03/13 01:17:34;;;;;;;11.07;6.35;;;;;;;13.11;64.62;99083.84;5091153;28;20036;-49
2024/03/13 01:20:00;;;;;;;8.57;5.75;;;;;;;13.14;64.89;99080.81;5092062;28;20111;-50
2024/03/13 01:22:28;;;;;;;10.50;6.68;;;;;;;13.18;64.65;99078.56;5092355;28;20077;-49
2024/03/13 01:24:56;;;;;;;10.50;5.72;;;;;;;13.14;64.82;99080.00;5092334;28;20024;-49
2024/03/13 01:27:22;;;;;;;9.95;6.43;;;;;;;13.05;64.43;99076.75;5090913;28;20032;-49
2024/03/13 01:29:50;;;;;;;8.93;6.22;;;;;;;12.91;65.47;99075.97;5092331;28;20107;-49
2024/03/13 01:32:17;;;;;;;11.18;6.88;;;;;;;13.02;65.66;99071.09;5092169;28;20047;-49
2024/03/13 01:34:43;;;;;;;10.05;7.00;;;;;;;12.80;65.05;99063.44;5091136;28;20036;-49
2024/03/13 01:39:53;;;;;;;9.40;7.03;;;;;;;12.69;65.90;99056.97;5092089;28;20032;-49
2024/03/13 01:56:22;;;;;;;9.97;7.37;;;;;;;12.38;66.90;99036.56;5092464;28;20060;-49
2024/03/13 01:59:03;;;;;;;15.55;13.38;;;;;;;12.55;67.12;99039.56;5091842;28;20031;-49
2024/03/13 02:04:16;;;;;;;11.65;6.85;;;;;;;12.67;66.46;99042.38;5091940;28;20107;-49
2024/03/13 02:06:43;;;;;;;11.85;7.47;;;;;;;12.49;66.29;99040.38;5090825;28;20039;-49
2024/03/13 02:09:09;;;;;;;10.10;5.97;;;;;;;12.14;66.52;99033.50;5090582;28;20066;-49
2024/03/13 02:11:38;;;;;;;13.80;8.02;;;;;;;11.89;67.33;99032.47;5090509;28;20057;-49
2024/03/13 02:14:05;;;;;;;9.88;7.15;;;;;;;11.65;68.61;99032.00;5091767;28;20425;-49
2024/03/13 02:16:31;;;;;;;9.73;5.95;;;;;;;11.55;69.59;99027.13;5091731;28;20060;-49
2024/03/13 02:18:59;;;;;;;13.20;9.52;;;;;;;11.62;69.86;99023.69;5091650;28;20131;-49
2024/03/13 02:21:25;;;;;;;11.35;8.00;;;;;;;11.76;70.31;99033.22;5091281;28;20461;-49
2024/03/13 02:23:51;;;;;;;12.38;7.38;;;;;;;11.89;70.37;99029.81;5091676;28;20401;-48
2024/03/13 02:26:18;;;;;;;13.68;6.80;;;;;;;12.16;70.78;99034.13;5090382;28;20035;-49
2024/03/13 02:28:45;;;;;;;10.88;7.28;;;;;;;12.48;70.59;99030.88;5091513;28;20024;-49
2024/03/13 02:31:11;;;;;;;27.80;22.17;;;;;;;12.50;69.17;99034.91;5091542;28;20040;-49
2024/03/13 02:33:37;;;;;;;20.90;18.67;;;;;;;12.44;69.64;99024.41;5091737;28;20032;-49
2024/03/13 02:36:03;;;;;;;16.73;12.73;;;;;;;12.23;68.68;99022.78;5090462;28;20500;-49
2024/03/13 02:38:29;;;;;;;12.38;9.75;;;;;;;12.00;69.36;99021.34;5091513;28;20028;-49
2024/03/13 02:40:56;;;;;;;28.60;22.23;;;;;;;11.89;69.53;99020.13;5091786;28;20112;-49
2024/03/13 02:43:22;;;;;;;33.33;30.05;;;;;;;11.95;70.27;99018.50;5091454;28;20490;-49
2024/03/13 02:45:48;;;;;;;46.90;42.47;;;;;;;12.05;69.91;99013.66;5091336;28;20024;-49
2024/03/13 02:48:15;;;;;;;12.95;11.65;;;;;;;12.26;70.33;99012.66;5091420;28;20405;-49
2024/03/13 02:50:43;;;;;;;16.58;14.75;;;;;;;12.41;69.17;99015.06;5091332;28;20024;-49
2024/03/13 02:53:09;;;;;;;12.80;8.80;;;;;;;12.48;69.18;99012.44;5091411;28;20027;-49
2024/03/13 02:55:39;;;;;;;20.17;10.15;;;;;;;12.53;68.93;99010.00;5090385;28;20062;-49
2024/03/13 02:58:05;;;;;;;13.85;9.35;;;;;;;12.64;68.70;99011.22;5091258;28;20028;-49
2024/03/13 03:00:31;;;;;;;9.55;6.50;;;;;;;12.69;68.37;99008.75;5091866;28;20031;-49
2024/03/13 03:02:57;;;;;;;11.38;7.93;;;;;;;12.56;67.92;99009.59;5093771;28;20428;-49
2024/03/13 03:05:24;;;;;;;12.20;8.57;;;;;;;12.50;68.13;99005.97;5095227;28;20024;-49
2024/03/13 03:07:53;;;;;;;10.68;7.22;;;;;;;12.57;68.38;99006.75;5094899;28;20020;-49
2024/03/13 03:10:19;;;;;;;15.52;7.28;;;;;;;12.67;68.30;99000.25;5093588;28;20481;-49
2024/03/13 03:12:45;;;;;;;8.82;7.28;;;;;;;12.73;68.10;99005.50;5094902;28;20030;-49
2024/03/13 03:15:11;;;;;;;12.23;7.90;;;;;;;12.64;67.76;99004.13;5093478;28;20549;-49
2024/03/13 03:17:38;;;;;;;12.52;7.22;;;;;;;12.65;67.98;99007.56;5094729;28;20027;-49
2024/03/13 03:20:06;;;;;;;11.57;7.13;;;;;;;12.67;67.93;99005.53;5094430;28;20027;-49
2024/03/13 03:22:32;;;;;;;12.30;9.75;;;;;;;12.69;68.35;99001.66;5094708;28;20054;-49
2024/03/13 03:24:58;;;;;;;9.90;7.28;;;;;;;12.85;67.81;99007.50;5094627;28;20031;-49
2024/03/13 03:27:25;;;;;;;11.93;7.28;;;;;;;12.96;68.03;99002.41;5093538;28;20024;-49
2024/03/13 03:29:52;;;;;;;9.63;7.25;;;;;;;13.05;67.74;98989.81;5094483;28;20024;-49
2024/03/13 03:32:20;;;;;;;16.58;7.93;;;;;;;13.07;67.45;98995.69;5094680;28;20115;-49
2024/03/13 03:34:46;;;;;;;12.80;7.45;;;;;;;13.07;67.05;99000.16;5094376;28;20080;-49
2024/03/13 03:37:14;;;;;;;10.45;7.10;;;;;;;13.01;66.80;98993.06;5094600;28;20031;-49
2024/03/13 03:39:39;;;;;;;11.57;7.47;;;;;;;12.87;66.71;98994.94;5094292;28;20559;-49
2024/03/13 03:42:06;;;;;;;11.18;7.70;;;;;;;12.65;66.68;98989.91;5094495;28;20080;-49
2024/03/13 03:44:32;;;;;;;15.70;6.55;;;;;;;12.39;67.52;98993.41;5094220;28;20553;-49
2024/03/13 03:46:58;;;;;;;11.57;7.30;;;;;;;12.41;68.41;98983.47;5094153;28;20425;-49
2024/03/13 03:49:25;;;;;;;8.23;6.28;;;;;;;12.37;68.09;98985.75;5094186;28;20485;-49
2024/03/13 03:51:51;;;;;;;10.43;7.13;;;;;;;12.35;68.05;98979.03;5094103;28;20028;-49
2024/03/13 03:54:16;;;;;;;15.52;7.63;;;;;;;12.22;68.14;98986.97;5093967;28;20030;-49
2024/03/13 03:56:43;;;;;;;13.48;7.30;;;;;;;12.24;68.95;98988.38;5094204;28;20030;-49
2024/03/13 03:59:08;;;;;;;10.60;7.07;;;;;;;12.26;68.66;98985.53;5094115;28;20389;-49
2024/03/13 04:01:35;;;;;;;10.95;7.10;;;;;;;12.13;68.98;98988.97;5092568;28;20035;-49
2024/03/13 04:04:04;;;;;;;11.98;8.00;;;;;;;12.20;69.26;98987.16;5093843;28;20019;-49
2024/03/13 04:06:32;;;;;;;10.75;6.60;;;;;;;12.38;69.27;98991.81;5093804;28;20424;-49
2024/03/13 04:08:58;;;;;;;11.20;7.22;;;;;;;12.49;69.39;98995.63;5093782;28;20547;-49
2024/03/13 04:11:24;;;;;;;11.38;7.10;;;;;;;12.56;69.40;98994.59;5093644;28;20042;-49
2024/03/13 04:13:50;;;;;;;12.50;7.43;;;;;;;12.68;69.32;99001.88;5092790;28;20186;-49
2024/03/13 04:16:20;;;;;;;10.88;8.55;;;;;;;12.76;69.13;98999.03;5093525;28;20046;-49
2024/03/13 04:18:46;;;;;;;11.60;7.93;;;;;;;12.75;68.63;98998.19;5093775;28;20103;-49
2024/03/13 04:21:12;;;;;;;15.40;8.52;;;;;;;12.70;68.85;98999.84;5091939;28;20413;-49
2024/03/13 04:23:39;;;;;;;14.88;8.15;;;;;;;12.62;68.30;98992.97;5092179;28;20055;-49
2024/03/13 04:26:05;;;;;;;20.92;8.57;;;;;;;12.42;68.65;99000.91;5092193;28;20026;-49
2024/03/13 04:28:32;;;;;;;14.55;8.82;;;;;;;12.37;69.47;98998.91;5093411;28;20129;-49
2024/03/13 04:31:00;;;;;;;15.82;7.72;;;;;;;12.44;69.80;98998.88;5093348;28;20024;-49
2024/03/13 04:33:27;;;;;;;16.55;7.93;;;;;;;12.67;69.44;98997.63;5091982;28;20024;-49
2024/03/13 04:35:54;;;;;;;13.02;7.15;;;;;;;12.79;68.93;98990.69;5093198;28;20520;-49
2024/03/13 04:38:19;;;;;;;16.52;9.73;;;;;;;12.68;68.43;98975.56;5091882;28;20027;-49
2024/03/13 04:40:45;;;;;;;12.50;8.60;;;;;;;12.58;68.35;98984.69;5093109;28;20478;-49
2024/03/13 04:43:11;;;;;;;16.13;9.48;;;;;;;12.51;68.59;98981.25;5093409;28;20504;-49
2024/03/13 04:45:37;;;;;;;11.10;7.15;;;;;;;12.31;68.63;98976.00;5092975;28;20409;-49
2024/03/13 04:48:07;;;;;;;12.40;6.13;;;;;;;12.05;68.98;98974.19;5092966;28;20521;-49
2024/03/13 04:50:34;;;;;;;13.25;8.90;;;;;;;12.01;70.14;98975.59;5092923;28;20016;-48
2024/03/13 04:53:00;;;;;;;10.10;6.00;;;;;;;12.16;70.03;98970.16;5091642;28;20035;-49
2024/03/13 04:55:29;;;;;;;9.15;7.00;;;;;;;12.25;69.73;98961.03;5092829;28;20042;-49
2024/03/13 04:57:55;;;;;;;10.27;6.60;;;;;;;12.41;69.53;98964.25;5092794;28;20055;-49
2024/03/13 05:00:21;;;;;;;14.30;6.85;;;;;;;12.31;68.92;98968.09;5091381;28;20145;-49
2024/03/13 05:02:47;;;;;;;11.40;7.68;;;;;;;12.09;69.41;98966.72;5091493;28;20126;-49
2024/03/13 05:05:13;;;;;;;11.52;6.55;;;;;;;11.96;69.64;98967.53;5092979;28;20505;-49
2024/03/13 05:07:39;;;;;;;17.77;7.07;;;;;;;11.90;70.18;98965.72;5092711;28;20126;-49
2024/03/13 05:10:06;;;;;;;14.43;8.40;;;;;;;11.74;69.87;98962.41;5092590;28;20513;-49
2024/03/13 05:12:36;;;;;;;17.20;9.50;;;;;;;11.56;70.63;98962.19;5091452;28;20031;-49
2024/03/13 05:15:09;;;;;;;17.00;15.23;;;;;;;11.28;70.84;98964.97;5075062;28;20501;-49
2024/03/13 05:17:36;;;;;;;20.60;16.48;;;;;;;11.33;72.70;98971.25;5092825;28;20032;-49
2024/03/13 05:20:06;;;;;;;17.85;9.15;;;;;;;11.55;72.71;98965.81;5092122;28;20073;-50
2024/03/13 05:22:33;;;;;;;15.73;9.80;;;;;;;11.75;72.48;98966.69;5092487;28;20108;-49
2024/03/13 05:24:59;;;;;;;12.23;10.07;;;;;;;11.76;71.82;98962.22;5074237;28;20028;-49
2024/03/13 05:27:25;;;;;;;19.10;12.85;;;;;;;11.60;71.33;98956.34;5092296;28;20026;-49
2024/03/13 05:29:52;;;;;;;19.60;11.65;;;;;;;11.63;72.25;98963.03;5091220;28;20375;-49
2024/03/13 05:32:18;;;;;;;26.00;15.18;;;;;;;11.88;72.40;98962.44;5092477;28;20375;-49
2024/03/13 05:34:43;;;;;;;14.10;10.23;;;;;;;12.01;71.64;98959.81;5092180;28;20028;-49
2024/03/13 05:37:09;;;;;;;20.50;9.40;;;;;;;12.04;71.79;98962.06;5092146;28;20040;-49
2024/03/13 05:39:35;;;;;;;24.25;12.90;;;;;;;12.16;71.23;98968.34;5092100;28;20054;-49
2024/03/13 05:42:01;;;;;;;24.90;15.75;;;;;;;12.18;71.14;98973.41;5090694;28;20028;-49
2024/03/13 05:44:27;;;;;;;36.72;11.35;;;;;;;12.18;71.00;98976.03;5092069;28;20038;-49
2024/03/13 05:46:54;;;;;;;22.00;10.23;;;;;;;12.14;71.22;98969.56;5092253;28;20063;-49
2024/03/13 05:49:19;;;;;;;21.48;8.38;;;;;;;12.16;71.00;98976.22;5090696;28;20442;-49
2024/03/13 05:51:47;;;;;;;34.00;10.43;;;;;;;12.26;71.11;98965.28;5091992;28;20116;-49
2024/03/13 05:54:13;;;;;;;38.97;13.35;;;;;;;12.30;71.00;98981.50;5091881;28;20028;-49
2024/03/13 05:56:38;;;;;;;31.83;8.65;;;;;;;12.43;71.50;98978.03;5091908;28;20031;-49
2024/03/13 05:59:05;;;;;;;26.30;7.53;;;;;;;12.58;70.84;98987.31;5091810;28;20032;-49
2024/03/13 06:01:30;;;;;;;15.77;8.15;;;;;;;12.54;70.42;98980.03;5091908;28;20154;-49
2024/03/13 06:03:58;;;;;;;12.05;7.35;;;;;;;12.63;70.24;98988.53;5091876;28;20036;-49
2024/03/13 06:06:24;;;;;;;15.45;6.80;;;;;;;12.63;69.93;98983.25;5090477;28;20024;-49
2024/03/13 06:08:50;;;;;;;18.67;8.52;;;;;;;12.59;69.61;98981.00;5091866;28;20035;-49
2024/03/13 06:11:18;;;;;;;14.65;6.95;;;;;;;12.49;69.74;98982.47;5091769;28;20482;-49
2024/03/13 06:13:47;;;;;;;20.67;8.27;;;;;;;12.48;69.86;98983.50;5091990;28;20040;-49
2024/03/13 06:16:15;;;;;;;15.52;8.32;;;;;;;12.47;69.99;98984.50;5091718;28;20032;-49
2024/03/13 06:18:41;;;;;;;17.27;7.63;;;;;;;12.39;69.65;98988.16;5091565;28;20020;-49
2024/03/13 06:21:10;;;;;;;24.35;7.78;;;;;;;12.44;70.30;98982.28;5073351;28;20108;-49
2024/03/13 06:23:37;;;;;;;19.00;8.77;;;;;;;12.60;70.09;98984.47;5090380;28;20024;-49
2024/03/13 06:26:07;;;;;;;15.50;7.38;;;;;;;12.65;69.91;98983.84;5090313;28;20031;-49
2024/03/13 06:31:18;;;;;;;14.73;6.78;;;;;;;12.87;69.62;98985.22;5091848;28;20031;-49
2024/03/13 06:33:44;;;;;;;32.80;18.00;;;;;;;12.98;69.11;98976.66;5091495;28;20032;-49
2024/03/13 06:36:10;;;;;;;15.82;10.60;;;;;;;12.96;68.45;98976.06;5093184;28;20024;-49
2024/03/13 06:38:36;;;;;;;31.90;11.50;;;;;;;12.83;68.54;98984.00;5095560;28;20089;-49
2024/03/13 06:41:02;;;;;;;22.35;9.07;;;;;;;12.69;69.03;98977.16;5095403;28;20416;-49
2024/03/13 06:43:28;;;;;;;38.60;15.63;;;;;;;12.80;69.51;98981.81;5094161;28;20496;-49
2024/03/13 06:45:54;;;;;;;30.92;14.43;;;;;;;13.04;69.47;98974.19;5095423;28;20113;-49
2024/03/13 06:48:19;;;;;;;26.23;8.95;;;;;;;13.23;68.76;98978.59;5094046;28;20059;-49
2024/03/13 06:50:45;;;;;;;27.48;13.60;;;;;;;13.32;68.11;98977.38;5093971;28;20120;-49
2024/03/13 06:53:11;;;;;;;20.02;11.43;;;;;;;13.11;67.75;98983.69;5095313;28;20117;-49
2024/03/13 06:55:37;;;;;;;14.55;7.70;;;;;;;13.14;68.36;98985.94;5093967;28;20036;-49
2024/03/13 06:58:04;;;;;;;17.67;7.70;;;;;;;13.18;67.78;98981.06;5093909;28;20036;-49
2024/03/13 07:00:32;;;;;;;19.55;11.50;;;;;;;13.20;67.61;98981.66;5095054;28;20028;-49
2024/03/13 07:03:03;;;;;;;18.30;11.98;;;;;;;13.25;67.64;98984.44;5095033;28;20066;-48
2024/03/13 07:05:29;;;;;;;14.25;12.07;;;;;;;13.35;67.62;98990.09;5095079;28;20028;-49
2024/03/13 07:07:56;;;;;;;17.55;13.48;;;;;;;13.51;67.74;98983.53;5093713;28;20034;-49
2024/03/13 07:10:22;;;;;;;14.82;9.80;;;;;;;13.72;67.79;98978.94;5093645;28;20020;-49
2024/03/13 07:12:48;;;;;;;18.63;13.25;;;;;;;13.95;67.47;98986.31;5093706;28;20079;-49
2024/03/13 07:15:14;;;;;;;21.10;9.80;;;;;;;14.15;66.03;98984.31;5093455;28;20497;-49
2024/03/13 07:17:40;;;;;;;24.85;19.77;;;;;;;14.43;65.89;98976.94;5094866;28;20099;-49
2024/03/13 07:20:12;;;;;;;14.10;11.30;;;;;;;14.92;64.85;98975.25;5094378;28;20112;-50
2024/03/13 07:22:38;;;;;;;13.77;10.85;;;;;;;15.27;62.80;98964.84;5094707;28;20107;-49
2024/03/13 07:25:09;;;;;;;18.30;9.63;;;;;;;15.46;61.56;98970.91;5093353;28;20059;-49
2024/03/13 07:27:36;;;;;;;60.83;11.63;;;;;;;15.84;61.30;98966.31;5093703;28;20755;-49
2024/03/13 07:30:09;;;;;;;24.08;9.23;;;;;;;16.91;59.74;98965.25;5094533;28;20027;-46
2024/03/13 07:32:35;;;;;;;34.65;9.82;;;;;;;18.80;55.76;98954.28;5094613;28;20028;-46
2024/03/13 07:35:03;;;;;;;25.52;12.15;;;;;;;20.33;50.94;98948.78;5094652;28;20027;-47
2024/03/13 07:37:29;;;;;;;19.08;9.82;;;;;;;21.32;48.01;98949.72;5094417;28;20443;-47
2024/03/13 07:39:58;;;;;;;15.00;9.70;;;;;;;21.81;45.85;98939.63;5094349;28;20027;-47
2024/03/13 07:42:25;;;;;;;14.32;9.85;;;;;;;21.49;45.21;98933.50;5093064;28;20028;-47
2024/03/13 07:44:54;;;;;;;27.25;14.10;;;;;;;21.27;44.82;98931.03;5094309;28;20561;-47
2024/03/13 07:47:20;;;;;;;23.67;18.40;;;;;;;21.20;44.26;98948.38;5094087;28;20028;-47
2024/03/13 07:49:46;;;;;;;22.67;16.50;;;;;;;21.45;43.33;98944.97;5094134;28;20035;-47
2024/03/13 07:52:12;;;;;;;16.13;8.18;;;;;;;22.19;41.76;98956.97;5094093;28;20024;-47
2024/03/13 07:54:41;;;;;;;22.27;8.75;;;;;;;22.35;40.11;98944.41;5093039;28;20063;-47
2024/03/13 07:57:08;;;;;;;15.93;8.20;;;;;;;22.14;40.60;98955.13;5094016;28;20032;-47
2024/03/13 07:59:35;;;;;;;41.75;27.77;;;;;;;22.43;39.97;98954.53;5092582;28;20039;-47
2024/03/13 08:02:00;;;;;;;12.98;11.05;;;;;;;22.71;38.74;98953.13;5092715;28;20028;-47
2024/03/13 08:04:26;;;;;;;17.67;8.63;;;;;;;22.24;38.48;98956.22;5093941;28;20517;-47
2024/03/13 08:06:57;;;;;;;11.13;9.60;;;;;;;21.39;38.31;98954.00;5092566;28;20074;-47
2024/03/13 08:09:28;;;;;;;11.48;8.70;;;;;;;20.30;39.45;98965.28;5092923;28;20097;-47
2024/03/13 08:12:00;;;;;;;15.25;8.20;;;;;;;20.20;40.75;98965.22;5092519;28;20067;-47
2024/03/13 08:14:25;;;;;;;15.60;7.88;;;;;;;20.78;40.54;98965.28;5093771;28;20030;-47
2024/03/13 08:16:52;;;;;;;24.52;8.50;;;;;;;21.51;39.87;98963.41;5092323;28;20114;-47
2024/03/13 08:19:18;;;;;;;21.08;7.05;;;;;;;21.93;38.78;98972.22;5093560;28;20123;-47
2024/03/13 08:21:44;;;;;;;19.02;7.68;;;;;;;22.94;37.44;98965.09;5075302;28;20083;-47
2024/03/13 08:24:10;;;;;;;17.70;7.97;;;;;;;23.54;36.27;98964.22;5093497;28;20548;-47
2024/03/13 08:26:36;;;;;;;16.90;6.97;;;;;;;23.63;35.46;98959.88;5092435;28;20028;-47
2024/03/13 08:29:02;;;;;;;24.50;6.90;;;;;;;23.63;35.70;98967.13;5093409;28;20035;-47
2024/03/13 08:31:28;;;;;;;19.58;6.57;;;;;;;24.06;34.75;98960.06;5093304;28;20024;-47
2024/03/13 08:33:56;;;;;;;15.20;5.40;;;;;;;24.88;33.41;98963.81;5093252;28;20031;-47
2024/03/13 08:36:22;;;;;;;25.98;7.35;;;;;;;25.61;32.31;98951.78;5093153;28;20061;-47
2024/03/13 08:38:49;;;;;;;19.65;6.22;;;;;;;26.02;31.83;98953.03;5091908;28;20028;-47
2024/03/13 08:41:16;;;;;;;16.75;6.53;;;;;;;26.59;30.51;98953.59;5093206;28;20205;-47
2024/03/13 08:43:46;;;;;;;13.25;5.68;;;;;;;27.29;29.96;98957.03;5092130;28;20028;-47
2024/03/13 08:46:12;;;;;;;17.08;4.78;;;;;;;27.72;28.52;98956.53;5093013;28;20034;-47
2024/03/13 08:48:38;;;;;;;15.60;4.38;;;;;;;27.82;28.33;98955.50;5091776;28;20032;-47
2024/03/13 08:51:09;;;;;;;18.42;4.90;;;;;;;28.01;28.61;98955.31;5091761;28;20032;-47
2024/03/13 08:53:35;;;;;;;16.83;4.75;;;;;;;28.49;27.72;98958.09;5092987;28;20085;-47
2024/03/13 08:56:01;;;;;;;10.40;3.85;;;;;;;28.83;27.24;98958.50;5092860;28;20446;-47
2024/03/13 08:58:27;;;;;;;10.45;4.40;;;;;;;28.76;26.88;98955.50;5091034;28;20061;-47
2024/03/13 09:00:55;;;;;;;16.05;6.03;;;;;;;28.97;26.99;98952.97;5092780;28;20035;-47
2024/03/13 09:03:23;;;;;;;13.27;6.72;;;;;;;29.09;26.23;98961.25;5092827;28;20020;-47
2024/03/13 09:05:51;;;;;;;13.20;8.50;;;;;;;29.11;26.67;98964.47;5091520;28;20027;-47
2024/03/13 09:08:18;;;;;;;22.25;7.55;;;;;;;29.51;26.41;98967.03;5092711;28;20563;-47
2024/03/13 09:10:44;;;;;;;12.27;7.07;;;;;;;29.67;26.10;98967.34;5092904;28;20493;-48
2024/03/13 09:13:10;;;;;;;13.10;6.40;;;;;;;30.09;26.12;98958.69;5092660;28;20046;-47
2024/03/13 09:15:36;;;;;;;7.82;4.88;;;;;;;30.49;25.82;98956.50;5091322;28;20031;-48
2024/03/13 09:18:02;;;;;;;17.98;4.15;;;;;;;30.67;25.04;98957.19;5092513;28;20028;-47
2024/03/13 09:20:28;;;;;;;17.17;9.30;;;;;;;30.92;25.04;98960.88;5092099;28;20051;-48
2024/03/13 09:22:55;;;;;;;47.47;25.20;;;;;;;30.65;24.87;98959.44;5092483;28;20032;-47
2024/03/13 09:25:20;;;;;;;15.43;7.50;;;;;;;30.69;25.14;98970.38;5091133;28;20039;-48
2024/03/13 09:27:46;;;;;;;18.27;5.22;;;;;;;29.87;25.89;98963.19;5091061;28;20036;-47
2024/03/13 09:30:12;;;;;;;9.88;4.20;;;;;;;28.73;26.39;98959.59;5092270;28;20032;-47
2024/03/13 09:32:38;;;;;;;12.05;5.22;;;;;;;26.61;29.08;98980.25;5092319;28;20031;-47
2024/03/13 09:35:04;;;;;;;11.27;4.97;;;;;;;25.17;31.45;98981.69;5092169;28;20107;-47
2024/03/13 09:37:31;;;;;;;10.45;4.07;;;;;;;24.40;32.67;98975.31;5090971;28;20055;-47
2024/03/13 09:39:58;;;;;;;13.55;4.50;;;;;;;23.83;34.29;98983.06;5092056;28;20032;-47
2024/03/13 09:42:27;;;;;;;8.95;3.63;;;;;;;23.10;35.11;98992.63;5092072;28;20028;-46
2024/03/13 09:44:56;;;;;;;8.45;3.33;;;;;;;22.31;36.82;98986.91;5092074;28;20379;-47
2024/03/13 09:47:27;;;;;;;20.88;4.68;;;;;;;22.80;37.71;98980.13;5092101;28;20032;-47
2024/03/13 09:49:56;;;;;;;10.68;2.78;;;;;;;24.35;35.26;98975.38;5090771;28;20030;-47
2024/03/13 09:52:24;;;;;;;12.30;3.80;;;;;;;24.09;34.48;98966.78;5090668;28;20036;-47
2024/03/13 09:54:50;;;;;;;10.75;2.70;;;;;;;23.09;35.83;98977.63;5090790;28;20035;-46
2024/03/13 09:57:17;;;;;;;17.80;3.67;;;;;;;22.18;37.43;98979.44;5090635;28;20024;-47
2024/03/13 09:59:43;;;;;;;16.58;5.82;;;;;;;21.53;38.95;98971.97;5073904;28;20028;-47
2024/03/13 10:02:16;;;;;;;11.02;6.28;;;;;;;20.88;40.45;98979.47;5090524;28;20032;-46
2024/03/13 10:05:01;;;;;;;25.17;16.15;;;;;;;22.16;40.22;98972.78;5073996;28;20031;-47
2024/03/13 10:07:27;;;;;;;18.63;7.72;;;;;;;23.90;36.69;98972.84;5091847;28;20035;-47
2024/03/13 10:09:53;;;;;;;21.13;10.25;;;;;;;24.95;34.27;98964.25;5090693;28;20095;-47
2024/03/13 10:12:21;;;;;;;56.80;33.17;;;;;;;25.91;33.38;98952.41;5095657;28;20035;-47
2024/03/13 10:14:50;;;;;;;91.88;60.22;;;;;;;26.67;31.58;98949.41;5096018;28;20081;-47
2024/03/13 10:17:20;;;;;;;29.83;22.67;;;;;;;27.37;30.51;98939.34;5095895;28;20027;-47
2024/03/13 10:19:46;;;;;;;43.40;24.77;;;;;;;25.99;31.35;98957.09;5095789;28;20067;-47
2024/03/13 10:22:13;;;;;;;77.45;62.13;;;;;;;24.61;33.84;98945.59;5095611;28;20040;-47
2024/03/13 10:24:42;;;;;;;48.63;36.17;;;;;;;24.08;35.31;98941.03;5094495;28;20122;-47
2024/03/13 10:27:14;;;;;;;21.20;9.48;;;;;;;25.44;34.18;98943.47;5095799;28;20032;-47
2024/03/13 10:29:43;;;;;;;25.58;16.08;;;;;;;26.23;32.17;98942.69;5094575;28;20073;-47
2024/03/13 10:32:11;;;;;;;33.03;24.63;;;;;;;27.37;30.70;98926.66;5095608;28;20454;-47
2024/03/13 10:34:37;;;;;;;47.08;35.33;;;;;;;27.31;30.14;98930.56;5095578;28;20504;-47
2024/03/13 10:37:12;;;;;;;37.72;21.30;;;;;;;27.84;30.36;98929.00;5095553;28;20450;-47
2024/03/13 10:39:41;;;;;;;48.72;28.80;;;;;;;28.80;28.76;98922.13;5094267;28;20032;-47
2024/03/13 10:42:08;;;;;;;34.38;17.17;;;;;;;27.93;29.40;98923.69;5094135;28;20066;-47
2024/03/13 10:44:34;;;;;;;20.25;12.77;;;;;;;27.19;30.39;98922.97;5094174;28;20028;-47
2024/03/13 10:47:03;;;;;;;31.75;16.10;;;;;;;26.35;31.43;98920.69;5095688;28;20039;-47
2024/03/13 10:49:28;;;;;;;39.50;25.92;;;;;;;25.48;32.65;98920.28;5094100;28;20040;-47
2024/03/13 10:51:57;;;;;;;37.95;24.48;;;;;;;24.79;33.76;98928.75;5095356;28;20056;-47
2024/03/13 10:54:27;;;;;;;24.95;15.55;;;;;;;24.35;34.43;98913.69;5095512;28;20548;-47
2024/03/13 10:56:52;;;;;;;25.08;13.02;;;;;;;23.98;34.72;98915.13;5095212;28;20458;-47
2024/03/13 10:59:19;;;;;;;28.70;18.45;;;;;;;23.58;35.46;98919.72;5095077;28;20030;-47
2024/03/13 11:01:51;;;;;;;12.63;11.05;;;;;;;22.84;36.32;98924.97;5093947;28;20099;-46
2024/03/13 11:04:17;;;;;;;19.25;15.10;;;;;;;22.26;37.73;98911.28;5095090;28;20016;-47
2024/03/13 11:06:43;;;;;;;26.88;17.20;;;;;;;21.97;38.86;98922.53;5095135;28;20505;-47
2024/03/13 11:09:20;;;;;;;37.00;19.67;;;;;;;21.90;38.92;98928.16;5095023;28;20020;-47
2024/03/13 11:11:52;;;;;;;27.80;23.92;;;;;;;21.83;39.44;98916.94;5095041;28;20089;-47
2024/03/13 11:14:30;;;;;;;11.18;6.75;;;;;;;22.44;38.69;98917.94;5094928;28;20442;-47
2024/03/13 11:17:03;;;;;;;15.30;7.40;;;;;;;23.16;37.41;98899.69;5094870;28;20075;-47
2024/03/13 11:19:33;;;;;;;9.77;5.43;;;;;;;22.92;37.09;98894.97;5094759;28;20107;-46
2024/03/13 11:22:01;;;;;;;11.85;5.53;;;;;;;22.14;37.89;98904.31;5094227;28;20048;-47
2024/03/13 11:24:29;;;;;;;22.92;16.15;;;;;;;21.65;39.75;98904.09;5093442;28;20054;-47
2024/03/13 11:27:10;;;;;;;13.18;9.05;;;;;;;21.58;39.76;98904.38;5093383;28;20437;-47
2024/03/13 11:29:44;;;;;;;9.05;5.45;;;;;;;22.65;39.03;98890.00;5094732;28;20099;-46
2024/03/13 11:32:13;;;;;;;9.33;6.73;;;;;;;24.36;36.42;98877.69;5094915;28;20028;-47
2024/03/13 11:34:41;;;;;;;10.93;7.00;;;;;;;25.61;33.28;98873.81;5076329;28;20119;-47
2024/03/13 11:37:09;;;;;;;11.65;6.32;;;;;;;25.60;32.63;98872.25;5094526;28;20073;-47
2024/03/13 11:39:39;;;;;;;17.20;13.65;;;;;;;25.69;32.11;98866.97;5094413;28;20514;-46
2024/03/13 11:42:16;;;;;;;13.82;7.50;;;;;;;26.02;32.45;98859.69;5093163;28;20459;-47
2024/03/13 11:44:42;;;;;;;17.13;9.25;;;;;;;27.91;30.39;98853.06;5094659;28;20036;-47
2024/03/13 11:47:16;;;;;;;13.05;7.25;;;;;;;28.69;28.91;98853.31;5093140;28;20035;-47